Time;durP1;ratioP1;P1;durP2;ratioP2;P2;SDS_P1;SDS_P2;PMS_P1;PMS_P2;Temp;Humidity;BMP_temperature;BMP_pressure;BME280_temperature;BME280_humidity;BME280_pressure;Samples;Min_cycle;Max_cycle;Signal;HPM_P1;HPM_P2
2023/06/14 00:01:25;;;;;;;;;14.50;13.25;;;;;27.29;36.25;101107.09;5079049;28;45401;-70
2023/06/14 00:03:50;;;;;;;;;15.75;10.00;;;;;27.26;36.18;101110.19;5078831;28;45371;-70
2023/06/14 00:06:15;;;;;;;;;11.00;10.00;;;;;27.24;36.41;101114.09;5078863;27;46337;-70
2023/06/14 00:08:41;;;;;;;;;11.75;10.25;;;;;27.21;36.24;101109.16;5078813;28;46278;-69
2023/06/14 00:11:07;;;;;;;;;13.25;13.25;;;;;27.17;36.41;101116.75;5078747;28;45380;-70
2023/06/14 00:13:33;;;;;;;;;13.00;10.50;;;;;27.15;36.94;101114.31;5078617;28;45422;-69
2023/06/14 00:15:58;;;;;;;;;9.75;9.25;;;;;27.14;36.47;101104.63;5078426;28;46283;-70
2023/06/14 00:18:24;;;;;;;;;14.00;11.50;;;;;27.09;36.90;101107.09;5078760;28;45297;-70
2023/06/14 00:20:50;;;;;;;;;15.75;13.75;;;;;27.08;36.36;101110.81;5078947;28;45218;-69
2023/06/14 00:23:15;;;;;;;;;11.50;10.50;;;;;27.07;37.17;101117.16;5077307;28;45550;-70
2023/06/14 00:25:40;;;;;;;;;13.00;10.75;;;;;27.05;36.57;101116.56;5078692;28;46110;-70
2023/06/14 00:28:06;;;;;;;;;14.00;11.00;;;;;27.03;37.18;101110.59;5078416;28;45229;-70
2023/06/14 00:30:31;;;;;;;;;13.75;13.75;;;;;27.01;36.66;101110.00;5078601;27;45306;-69
2023/06/14 00:32:57;;;;;;;;;13.25;13.00;;;;;26.99;36.74;101110.19;5078686;28;45411;-70
2023/06/14 00:35:22;;;;;;;;;9.25;9.25;;;;;26.97;36.62;101109.59;5078445;28;47138;-70
2023/06/14 00:37:48;;;;;;;;;13.00;13.00;;;;;26.95;37.12;101106.31;5078386;28;45304;-70
2023/06/14 00:40:13;;;;;;;;;13.00;12.33;;;;;26.94;37.09;101113.47;5078393;27;45192;-69
2023/06/14 00:42:38;;;;;;;;;10.00;10.00;;;;;26.93;36.74;101117.19;5078108;28;45452;-70
2023/06/14 00:45:04;;;;;;;;;13.75;13.00;;;;;26.90;36.79;101120.28;5078148;27;47099;-71
2023/06/14 00:47:29;;;;;;;;;13.00;12.25;;;;;26.87;36.77;101114.53;5078209;28;45295;-72
2023/06/14 00:49:56;;;;;;;;;12.00;10.25;;;;;26.85;36.79;101115.53;5078266;28;45338;-71
2023/06/14 00:52:23;;;;;;;;;15.33;14.00;;;;;26.84;37.33;101113.91;5078282;28;45389;-71
2023/06/14 00:54:49;;;;;;;;;13.00;13.00;;;;;26.90;37.50;101112.28;5077218;28;47188;-71
2023/06/14 00:57:15;;;;;;;;;11.50;11.00;;;;;27.00;36.75;101111.00;5074994;27;45593;-71
2023/06/14 00:59:43;;;;;;;;;12.25;11.75;;;;;27.12;37.28;101113.84;5077681;28;45350;-71
2023/06/14 01:02:09;;;;;;;;;14.25;12.25;;;;;27.23;36.64;101117.78;5077986;28;45433;-71
2023/06/14 01:04:35;;;;;;;;;14.75;14.75;;;;;27.31;37.10;101114.88;5077780;28;45399;-70
2023/06/14 01:07:15;;;;;;;;;11.67;11.33;;;;;27.40;36.61;101112.81;5078062;28;45330;-70
2023/06/14 01:10:08;;;;;;;;;16.50;16.50;;;;;27.52;36.85;101104.94;5078218;28;45437;-71
2023/06/14 01:12:43;;;;;;;;;12.67;12.67;;;;;27.61;36.51;101116.22;5077601;28;45357;-71
2023/06/14 01:15:10;;;;;;;;;16.25;15.00;;;;;27.67;37.06;101114.53;5077411;28;45452;-70
2023/06/14 01:17:41;;;;;;;;;17.00;14.00;;;;;27.73;36.71;101108.34;5077883;28;45362;-71
2023/06/14 01:20:10;;;;;;;;;14.25;13.25;;;;;27.77;36.82;101109.56;5077889;28;45405;-71
2023/06/14 01:22:35;;;;;;;;;15.50;13.00;;;;;27.83;36.13;101116.78;5077730;28;45506;-71
2023/06/14 01:25:01;;;;;;;;;15.25;15.25;;;;;27.87;36.27;101108.31;5093229;27;46051;-71
2023/06/14 01:27:29;;;;;;;;;17.00;14.00;;;;;27.93;36.13;101110.13;5077278;28;45337;-71
2023/06/14 01:29:59;;;;;;;;;14.00;12.75;;;;;27.99;36.49;101114.63;5077797;27;45353;-71
2023/06/14 01:32:27;;;;;;;;;13.50;13.00;;;;;28.03;36.60;101113.16;5077650;27;45439;-71
2023/06/14 01:34:52;;;;;;;;;14.25;11.75;;;;;28.07;36.46;101114.38;5077511;28;47023;-71
2023/06/14 01:37:19;;;;;;;;;15.25;12.25;;;;;28.12;35.96;101115.56;5077394;28;45347;-71
2023/06/14 01:39:46;;;;;;;;;18.00;14.00;;;;;28.13;36.49;101120.69;5077393;27;45440;-71
2023/06/14 01:42:13;;;;;;;;;13.33;12.33;;;;;28.15;36.26;101109.81;5077285;28;45361;-71
2023/06/14 01:44:39;;;;;;;;;17.25;15.00;;;;;28.20;35.98;101119.84;5077312;27;46160;-71
2023/06/14 01:47:05;;;;;;;;;15.50;14.00;;;;;28.23;36.30;101114.06;5077383;27;45332;-71
2023/06/14 01:49:34;;;;;;;;;14.25;14.25;;;;;28.25;36.51;101112.00;5077557;28;45392;-70
2023/06/14 01:52:00;;;;;;;;;16.00;15.00;;;;;28.25;35.91;101109.31;5056963;28;45511;-71
2023/06/14 01:54:25;;;;;;;;;14.00;13.50;;;;;28.28;35.87;101109.72;5056942;28;45469;-71
2023/06/14 01:56:51;;;;;;;;;13.50;13.25;;;;;28.31;36.37;101113.00;5056697;28;45374;-71
2023/06/14 01:59:17;;;;;;;;;16.00;15.00;;;;;28.33;36.56;101108.22;5056943;28;45426;-71
2023/06/14 02:01:42;;;;;;;;;13.75;13.75;;;;;28.34;35.91;101109.88;5056905;28;45463;-71
2023/06/14 02:04:07;;;;;;;;;15.00;13.75;;;;;28.35;35.82;101109.66;5056756;28;46283;-68
2023/06/14 02:06:34;;;;;;;;;15.75;13.00;;;;;28.37;36.49;101104.91;5056652;28;45508;-68
2023/06/14 02:09:00;;;;;;;;;13.25;12.00;;;;;28.39;35.80;101112.72;5055994;28;45331;-71
2023/06/14 02:11:26;;;;;;;;;14.50;13.75;;;;;28.39;36.35;101102.03;5056385;28;45401;-71
2023/06/14 02:13:52;;;;;;;;;11.50;11.50;;;;;28.41;36.25;101105.31;5056495;28;45928;-71
2023/06/14 02:16:17;;;;;;;;;15.00;15.00;;;;;28.42;35.76;101101.56;5056252;28;45342;-71
2023/06/14 02:18:43;;;;;;;;;13.00;13.00;;;;;28.44;35.75;101112.06;5056819;28;45272;-71
2023/06/14 02:21:08;;;;;;;;;12.25;12.25;;;;;28.43;35.85;101103.22;5056820;28;45456;-71
2023/06/14 02:23:33;;;;;;;;;12.75;12.75;;;;;28.45;36.55;101100.34;5056380;28;46150;-71
2023/06/14 02:25:59;;;;;;;;;9.50;9.50;;;;;28.46;36.52;101108.16;5056109;28;45336;-71
2023/06/14 02:28:24;;;;;;;;;12.00;12.00;;;;;28.47;36.52;101109.00;5089313;27;45369;-71
2023/06/14 02:30:49;;;;;;;;;13.00;13.00;;;;;28.47;36.52;101109.00;5056584;28;45371;-71
2023/06/14 02:33:15;;;;;;;;;16.25;14.75;;;;;28.47;36.04;101109.00;5056220;28;46117;-71
2023/06/14 02:35:40;;;;;;;;;14.25;12.75;;;;;28.47;36.35;101106.31;5056457;28;45454;-71
2023/06/14 02:38:06;;;;;;;;;17.00;15.00;;;;;28.50;35.73;101105.88;5056427;28;45237;-71
2023/06/14 02:40:31;;;;;;;;;11.50;11.00;;;;;28.51;36.38;101110.19;5075433;27;45526;-71
2023/06/14 02:42:56;;;;;;;;;14.75;13.75;;;;;28.52;35.78;101101.94;5076433;28;45455;-70
2023/06/14 02:45:22;;;;;;;;;15.67;11.67;;;;;28.52;36.28;101099.25;5076365;27;45413;-71
2023/06/14 02:47:47;;;;;;;;;15.00;15.00;;;;;28.52;36.29;101103.81;5076620;27;45315;-71
2023/06/14 02:50:13;;;;;;;;;13.50;13.50;;;;;28.56;36.60;101106.84;5076454;28;45449;-70
2023/06/14 02:52:41;;;;;;;;;11.50;11.00;;;;;28.55;35.87;101107.91;5076086;28;47082;-70
2023/06/14 02:55:08;;;;;;;;;15.25;12.75;;;;;28.55;36.23;101106.03;5076267;28;45301;-71
2023/06/14 02:57:33;;;;;;;;;12.33;12.00;;;;;28.57;36.18;101108.50;5077132;27;45347;-71
2023/06/14 02:59:58;;;;;;;;;15.25;14.25;;;;;28.52;36.09;101098.47;5076318;28;45369;-71
2023/06/14 03:02:24;;;;;;;;;11.75;11.75;;;;;28.59;36.10;101106.41;5091859;27;47090;-71
2023/06/14 03:04:50;;;;;;;;;12.00;12.00;;;;;28.60;36.05;101113.41;5076135;28;45450;-71
2023/06/14 03:07:19;;;;;;;;;14.75;13.75;;;;;28.59;36.55;101106.41;5076037;28;45574;-71
2023/06/14 03:09:45;;;;;;;;;11.75;11.75;;;;;28.58;35.77;101110.13;5076138;28;45468;-71
2023/06/14 03:12:11;;;;;;;;;13.00;13.00;;;;;28.59;36.33;101112.59;5075880;28;45377;-68
2023/06/14 03:14:36;;;;;;;;;15.33;13.00;;;;;28.59;36.47;101114.44;5076044;28;45436;-68
2023/06/14 03:17:04;;;;;;;;;16.67;14.67;;;;;28.59;36.05;101109.09;5075864;28;45440;-69
2023/06/14 03:19:30;;;;;;;;;14.67;14.00;;;;;28.58;36.13;101107.44;5075758;27;45326;-71
2023/06/14 03:21:57;;;;;;;;;14.75;12.25;;;;;28.57;36.13;101120.03;5075230;28;47316;-71
2023/06/14 03:24:23;;;;;;;;;14.75;12.00;;;;;28.58;36.28;101126.19;5076077;28;45343;-71
2023/06/14 03:26:49;;;;;;;;;11.00;10.33;;;;;28.56;36.00;101123.72;5075858;28;45373;-71
2023/06/14 03:29:14;;;;;;;;;11.50;10.75;;;;;28.55;36.54;101124.75;5075826;27;45370;-71
2023/06/14 03:31:57;;;;;;;;;12.67;11.67;;;;;28.55;36.22;101126.63;5075752;28;46837;-71
2023/06/14 03:34:23;;;;;;;;;12.50;12.50;;;;;28.54;36.10;101123.13;5075746;28;45284;-72
2023/06/14 03:36:49;;;;;;;;;11.75;11.75;;;;;28.55;36.51;101126.63;5075566;28;45319;-71
2023/06/14 03:39:14;;;;;;;;;14.00;13.33;;;;;28.52;36.29;101119.88;5075671;27;45328;-71
2023/06/14 03:41:39;;;;;;;;;11.67;10.33;;;;;28.55;36.47;101132.78;5075494;28;47041;-71
2023/06/14 03:44:05;;;;;;;;;15.25;14.00;;;;;28.53;36.17;101134.88;5075427;28;51055;-71
2023/06/14 03:46:31;;;;;;;;;11.00;11.00;;;;;28.54;36.37;101130.34;5075639;27;45897;-71
2023/06/14 03:48:57;;;;;;;;;13.75;13.75;;;;;28.55;36.27;101138.13;5075797;27;45480;-71
2023/06/14 03:51:22;;;;;;;;;13.00;12.00;;;;;28.54;36.68;101135.69;5074950;27;46564;-71
2023/06/14 03:53:47;;;;;;;;;14.00;13.00;;;;;28.56;36.20;101134.44;5075386;28;45355;-71
2023/06/14 03:56:13;;;;;;;;;13.00;13.00;;;;;28.56;36.54;101139.78;5075836;28;45353;-71
2023/06/14 03:58:38;;;;;;;;;11.67;11.00;;;;;28.58;36.07;101139.56;5075641;28;45311;-69
2023/06/14 04:01:03;;;;;;;;;12.00;12.00;;;;;28.58;36.53;101140.38;5075480;28;46103;-68
2023/06/14 04:03:29;;;;;;;;;17.50;13.00;;;;;28.57;36.51;101143.28;5075391;28;45430;-71
2023/06/14 04:05:56;;;;;;;;;16.33;13.67;;;;;28.56;36.71;101147.81;5075049;28;45394;-70
2023/06/14 04:08:22;;;;;;;;;11.33;11.33;;;;;28.60;36.51;101146.34;5075443;27;45305;-71
2023/06/14 04:10:47;;;;;;;;;14.67;13.00;;;;;28.62;36.38;101149.63;5075237;28;46075;-71
2023/06/14 04:13:13;;;;;;;;;12.00;12.00;;;;;28.63;36.64;101145.91;5075268;28;45457;-70
2023/06/14 04:15:41;;;;;;;;;11.00;11.00;;;;;28.66;36.11;101149.19;5075370;27;45814;-71
2023/06/14 04:18:08;;;;;;;;;12.00;12.00;;;;;28.65;36.45;101139.53;5075345;28;45367;-71
2023/06/14 04:20:33;;;;;;;;;11.00;11.00;;;;;28.67;36.23;101145.47;5074697;28;46222;-71
2023/06/14 04:23:12;;;;;;;;;10.00;9.33;;;;;28.67;36.01;101150.84;5090620;27;45482;-71
2023/06/14 04:25:37;;;;;;;;;10.33;10.33;;;;;28.67;36.27;101148.97;5075308;28;45383;-71
2023/06/14 04:28:03;;;;;;;;;15.00;14.00;;;;;28.67;36.85;101158.88;5075172;27;45412;-71
2023/06/14 04:30:31;;;;;;;;;12.00;12.00;;;;;28.70;36.28;101159.22;5075339;28;46195;-71
2023/06/14 04:32:56;;;;;;;;;16.33;13.33;;;;;28.72;36.75;101156.34;5078775;28;45368;-71
2023/06/14 04:35:23;;;;;;;;;12.67;12.33;;;;;28.72;36.49;101161.69;5078175;28;45476;-71
2023/06/14 04:37:49;;;;;;;;;13.67;11.67;;;;;28.73;36.32;101169.50;5078552;28;45468;-70
2023/06/14 04:40:14;;;;;;;;;10.33;9.33;;;;;28.74;36.13;101165.81;5111119;27;47341;-71
2023/06/14 04:42:40;;;;;;;;;11.67;11.67;;;;;28.75;36.48;101163.94;5078370;28;45394;-71
2023/06/14 04:45:06;;;;;;;;;10.33;10.00;;;;;28.78;36.50;101168.84;5078495;28;45250;-71
2023/06/14 04:47:34;;;;;;;;;13.33;10.33;;;;;28.79;36.53;101165.13;5078580;28;45244;-71
2023/06/14 04:50:00;;;;;;;;;16.33;13.33;;;;;28.82;36.46;101166.56;5077580;27;45393;-71
2023/06/14 04:52:26;;;;;;;;;14.33;13.67;;;;;28.83;36.65;101166.31;5078227;28;45232;-70
2023/06/14 04:54:53;;;;;;;;;13.00;10.67;;;;;28.86;36.46;101175.78;5078295;28;45443;-71
2023/06/14 04:57:21;;;;;;;;;13.00;13.00;;;;;28.87;36.46;101168.56;5078129;28;45344;-71
2023/06/14 04:59:47;;;;;;;;;12.33;12.33;;;;;28.91;35.90;101172.47;5078028;28;45359;-70
2023/06/14 05:02:13;;;;;;;;;11.67;11.67;;;;;28.92;36.15;101174.91;5078164;27;45418;-71
2023/06/14 05:04:41;;;;;;;;;15.33;14.33;;;;;28.94;36.32;101169.31;5077744;28;45351;-71
2023/06/14 05:07:09;;;;;;;;;12.33;12.33;;;;;28.94;36.31;101169.31;5078270;28;45387;-71
2023/06/14 05:09:37;;;;;;;;;13.00;12.33;;;;;28.99;36.23;101184.75;5077885;27;46572;-71
2023/06/14 05:12:03;;;;;;;;;13.00;12.00;;;;;29.00;36.55;101183.72;5077866;28;45427;-71
2023/06/14 05:14:29;;;;;;;;;12.33;11.00;;;;;29.02;36.39;101187.81;5078003;27;45290;-71
2023/06/14 05:16:54;;;;;;;;;11.67;10.33;;;;;29.04;36.20;101184.91;5077782;28;45415;-71
2023/06/14 05:19:20;;;;;;;;;14.00;12.00;;;;;29.04;36.52;101187.59;5077444;28;45255;-71
2023/06/14 05:21:47;;;;;;;;;11.33;9.00;;;;;29.04;36.11;101183.03;5077780;28;45338;-70
2023/06/14 05:24:13;;;;;;;;;11.50;11.25;;;;;29.06;36.09;101172.13;5076721;28;45363;-69
2023/06/14 05:26:38;;;;;;;;;12.67;12.33;;;;;29.11;35.90;101187.56;5077747;28;45294;-70
2023/06/14 05:29:03;;;;;;;;;13.67;11.67;;;;;29.13;36.54;101185.47;5077697;28;45622;-69
2023/06/14 05:31:29;;;;;;;;;13.00;12.00;;;;;29.14;34.51;101189.81;5077717;27;45348;-70
2023/06/14 05:33:54;;;;;;;;;11.75;10.75;;;;;29.04;34.23;101182.25;5077266;28;45386;-70
2023/06/14 05:36:23;;;;;;;;;15.50;14.00;;;;;28.90;34.52;101192.25;5077018;28;45783;-71
2023/06/14 05:38:50;;;;;;;;;13.00;13.00;;;;;28.72;34.52;101183.94;5077376;27;46638;-70
2023/06/14 05:41:15;;;;;;;;;17.67;14.67;;;;;28.62;34.73;101191.66;5077213;27;45367;-70
2023/06/14 05:43:41;;;;;;;;;15.67;12.67;;;;;28.54;35.01;101191.91;5077623;28;45558;-69
2023/06/14 05:46:06;;;;;;;;;14.00;13.00;;;;;28.47;34.53;101194.63;5077392;28;45318;-70
2023/06/14 05:48:31;;;;;;;;;14.67;14.67;;;;;28.43;34.80;101198.72;5077115;27;46884;-70
2023/06/14 05:50:57;;;;;;;;;15.00;14.25;;;;;28.36;34.89;101201.47;5077327;27;45367;-70
2023/06/14 05:53:22;;;;;;;;;13.50;12.00;;;;;28.30;34.86;101197.78;5074482;28;45514;-68
2023/06/14 05:55:53;;;;;;;;;10.00;9.67;;;;;28.31;34.91;101196.75;5076719;27;45375;-68
2023/06/14 05:58:18;;;;;;;;;13.67;13.67;;;;;28.35;35.56;101197.94;5074488;28;47033;-68
2023/06/14 06:00:44;;;;;;;;;12.67;12.33;;;;;28.40;35.63;101197.31;5076349;28;45351;-69
2023/06/14 06:03:11;;;;;;;;;9.67;9.33;;;;;28.45;35.61;101194.84;5075637;28;45351;-68
2023/06/14 06:05:36;;;;;;;;;11.67;11.33;;;;;28.48;35.47;101190.91;5075470;28;45450;-68
2023/06/14 06:08:02;;;;;;;;;13.00;10.33;;;;;28.52;35.33;101190.25;5076500;27;45307;-68
2023/06/14 06:10:27;;;;;;;;;14.25;12.75;;;;;28.57;35.24;101196.81;5076841;28;45296;-67
2023/06/14 06:12:54;;;;;;;;;9.25;8.50;;;;;28.59;35.54;101200.94;5077245;28;45336;-68
2023/06/14 06:15:20;;;;;;;;;11.67;11.00;;;;;28.61;35.65;101201.53;5076845;27;45295;-68
2023/06/14 06:17:46;;;;;;;;;17.00;14.00;;;;;28.66;35.67;101208.91;5076558;28;45346;-67
2023/06/14 06:20:12;;;;;;;;;15.67;13.00;;;;;28.68;35.94;101203.31;5077077;28;45349;-68
2023/06/14 06:22:38;;;;;;;;;11.67;11.33;;;;;28.70;35.52;101198.59;5076873;28;45470;-67
2023/06/14 06:25:03;;;;;;;;;10.67;10.67;;;;;28.70;35.50;101202.06;5076752;28;45381;-68
2023/06/14 06:27:29;;;;;;;;;12.00;12.00;;;;;28.71;35.71;101203.72;5076839;28;46231;-68
2023/06/14 06:29:54;;;;;;;;;15.00;12.33;;;;;28.73;35.69;101204.31;5076640;28;45353;-68
2023/06/14 06:32:20;;;;;;;;;14.00;13.00;;;;;28.73;35.52;101204.31;5076472;28;45315;-68
2023/06/14 06:34:46;;;;;;;;;15.33;13.00;;;;;28.73;35.49;101206.97;5076806;28;45365;-68
2023/06/14 06:37:11;;;;;;;;;16.33;15.00;;;;;28.76;36.18;101204.91;5076471;28;45298;-68
2023/06/14 06:39:36;;;;;;;;;12.33;11.33;;;;;28.77;35.54;101212.75;5076683;27;45496;-68
2023/06/14 06:42:02;;;;;;;;;12.33;12.33;;;;;28.78;35.35;101219.72;5076635;28;45302;-68
2023/06/14 06:44:27;;;;;;;;;13.00;13.00;;;;;28.78;35.82;101213.56;5076598;28;45460;-68
2023/06/14 06:46:52;;;;;;;;;15.00;14.33;;;;;28.78;35.78;101214.34;5076260;27;46046;-68
2023/06/14 06:49:18;;;;;;;;;14.75;14.75;;;;;28.80;35.39;101220.34;5075137;28;45241;-67
2023/06/14 06:51:44;;;;;;;;;15.25;14.25;;;;;28.80;35.62;101220.34;5076367;27;45394;-68
2023/06/14 06:54:10;;;;;;;;;14.00;13.75;;;;;28.79;35.60;101221.38;5075715;28;45419;-68
2023/06/14 06:56:36;;;;;;;;;13.33;10.67;;;;;28.84;36.26;101231.41;5076302;27;47163;-68
2023/06/14 06:59:01;;;;;;;;;12.00;11.33;;;;;28.84;36.08;101226.88;5075993;28;45432;-68
2023/06/14 07:01:28;;;;;;;;;15.00;11.75;;;;;28.85;35.60;101230.38;5073546;28;45386;-68
2023/06/14 07:03:54;;;;;;;;;12.00;11.67;;;;;28.86;35.94;101226.66;5075351;28;45498;-68
2023/06/14 07:06:20;;;;;;;;;16.00;13.33;;;;;28.86;35.87;101229.34;5075154;28;46022;-67
2023/06/14 07:08:48;;;;;;;;;12.00;10.67;;;;;28.87;35.92;101232.84;5075516;28;45342;-68
2023/06/14 07:11:13;;;;;;;;;13.75;11.00;;;;;28.87;35.88;101227.47;5075595;28;45712;-69
2023/06/14 07:13:38;;;;;;;;;12.33;11.67;;;;;28.88;35.77;101232.63;5075806;28;45282;-67
2023/06/14 07:16:04;;;;;;;;;14.00;10.67;;;;;28.88;36.07;101229.13;5075002;28;45303;-68
2023/06/14 07:18:30;;;;;;;;;10.00;6.67;;;;;28.87;35.86;101232.84;5075552;28;45349;-69
2023/06/14 07:20:56;;;;;;;;;15.67;13.00;;;;;28.88;36.37;101235.31;5075486;28;45378;-68
2023/06/14 07:23:22;;;;;;;;;16.50;15.00;;;;;28.88;35.93;101238.00;5060652;28;45331;-68
2023/06/14 07:25:48;;;;;;;;;14.25;13.00;;;;;28.87;36.26;101244.38;5055177;28;47200;-68
2023/06/14 07:28:13;;;;;;;;;13.50;13.25;;;;;28.89;35.86;101247.66;5054888;28;45512;-67
2023/06/14 07:30:39;;;;;;;;;12.25;10.00;;;;;28.87;35.62;101246.22;5075038;28;45487;-68
2023/06/14 07:33:04;;;;;;;;;11.33;11.33;;;;;28.87;35.77;101243.56;5075760;27;45482;-69
2023/06/14 07:35:30;;;;;;;;;14.00;14.00;;;;;28.92;36.10;101257.09;5075497;27;46333;-69
2023/06/14 07:37:55;;;;;;;;;16.00;13.33;;;;;28.91;36.11;101252.81;5075676;27;45457;-68
2023/06/14 07:40:20;;;;;;;;;15.50;13.75;;;;;28.90;36.00;101253.84;5075726;27;45433;-68
2023/06/14 07:42:46;;;;;;;;;11.25;11.25;;;;;28.89;35.73;101261.03;5075281;27;45523;-68
2023/06/14 07:45:14;;;;;;;;;12.33;12.33;;;;;28.90;36.21;101264.53;5075106;27;54863;-68
2023/06/14 07:47:39;;;;;;;;;14.67;12.33;;;;;28.92;36.13;101265.97;5075277;27;45418;-68
2023/06/14 07:50:05;;;;;;;;;14.33;12.00;;;;;28.93;36.01;101270.31;5075365;28;45913;-69
2023/06/14 07:52:30;;;;;;;;;13.75;12.25;;;;;28.92;35.98;101265.16;5075483;28;45326;-68
2023/06/14 07:54:56;;;;;;;;;13.50;12.75;;;;;28.94;35.63;101276.44;5075371;28;45941;-69
2023/06/14 07:57:22;;;;;;;;;13.25;13.25;;;;;28.93;36.24;101269.47;5074735;28;45426;-68
2023/06/14 07:59:47;;;;;;;;;12.00;12.00;;;;;28.96;36.24;101274.41;5075464;28;45368;-69
2023/06/14 08:02:12;;;;;;;;;11.33;11.33;;;;;28.95;36.31;101273.56;5075449;28;45496;-69
2023/06/14 08:04:38;;;;;;;;;11.00;11.00;;;;;28.96;36.51;101269.03;5073865;27;46021;-69
2023/06/14 08:07:04;;;;;;;;;13.67;13.67;;;;;28.96;35.76;101271.72;5078016;28;46817;-69
2023/06/14 08:09:30;;;;;;;;;12.00;10.67;;;;;28.95;36.62;101267.38;5079119;28;45257;-69
2023/06/14 08:11:56;;;;;;;;;11.33;11.33;;;;;28.96;36.20;101267.16;5078333;28;45291;-68
2023/06/14 08:14:22;;;;;;;;;8.00;8.00;;;;;28.98;36.07;101276.84;5078609;28;46061;-69
2023/06/14 08:16:47;;;;;;;;;10.00;9.00;;;;;28.95;36.48;101276.25;5078256;27;45379;-69
2023/06/14 08:19:12;;;;;;;;;10.00;10.00;;;;;28.98;36.27;101275.00;5111665;27;45299;-69
2023/06/14 08:21:38;;;;;;;;;11.67;11.67;;;;;28.99;36.06;101275.81;5078727;27;45535;-68
2023/06/14 08:24:04;;;;;;;;;9.00;9.00;;;;;28.98;36.59;101272.31;5078406;28;46866;-69
2023/06/14 08:26:30;;;;;;;;;10.67;10.67;;;;;29.00;36.17;101274.78;5077863;28;45522;-69
2023/06/14 08:28:55;;;;;;;;;15.33;12.00;;;;;29.00;35.86;101272.09;5078109;28;45346;-69
2023/06/14 08:31:22;;;;;;;;;12.00;10.00;;;;;29.01;35.94;101274.56;5078214;28;45337;-69
2023/06/14 08:33:47;;;;;;;;;11.33;10.33;;;;;29.01;36.34;101274.56;5078482;28;46495;-69
2023/06/14 08:36:13;;;;;;;;;10.33;9.33;;;;;29.01;35.95;101274.56;5078363;28;45487;-69
2023/06/14 08:38:42;;;;;;;;;14.00;10.67;;;;;29.02;35.92;101278.03;5078431;27;45473;-69
2023/06/14 08:41:11;;;;;;;;;10.50;9.75;;;;;29.00;36.36;101275.59;5078148;28;45559;-69
2023/06/14 08:43:36;;;;;;;;;9.67;9.00;;;;;29.02;36.69;101278.88;5078105;27;46009;-69
2023/06/14 08:46:04;;;;;;;;;14.50;13.50;;;;;29.03;36.13;101283.19;5077930;28;45390;-69
2023/06/14 08:48:33;;;;;;;;;11.00;11.00;;;;;29.02;36.53;101280.72;5078210;28;45338;-69
2023/06/14 08:51:03;;;;;;;;;11.00;9.00;;;;;29.02;36.14;101280.72;5078159;27;45278;-69
2023/06/14 08:53:33;;;;;;;;;11.33;11.33;;;;;29.03;36.24;101283.19;5077703;28;46105;-69
2023/06/14 08:56:04;;;;;;;;;12.00;12.00;;;;;29.02;36.39;101281.53;5077396;28;45473;-69
2023/06/14 08:58:31;;;;;;;;;11.00;11.00;;;;;29.04;36.86;101276.00;5078021;28;45327;-69
2023/06/14 09:00:57;;;;;;;;;10.00;10.00;;;;;29.05;36.45;101286.47;5077788;27;45236;-69
2023/06/14 09:03:29;;;;;;;;;11.33;10.67;;;;;29.04;36.35;101282.16;5077357;28;46968;-69
2023/06/14 09:05:59;;;;;;;;;14.67;11.00;;;;;29.03;36.65;101277.84;5077350;27;45432;-69
2023/06/14 09:08:26;;;;;;;;;14.25;10.50;;;;;29.04;36.47;101292.06;5077844;28;45476;-69
2023/06/14 09:10:51;;;;;;;;;10.67;10.33;;;;;29.05;36.19;101288.31;5077524;28;45450;-69
2023/06/14 09:13:17;;;;;;;;;12.67;11.33;;;;;29.04;36.53;101287.50;5077721;28;45700;-69
2023/06/14 09:15:43;;;;;;;;;12.00;10.67;;;;;29.02;36.25;101281.53;5077760;27;45370;-69
2023/06/14 09:18:08;;;;;;;;;12.33;12.33;;;;;29.04;36.21;101292.06;5076835;28;45319;-69
2023/06/14 09:20:34;;;;;;;;;14.00;12.67;;;;;29.04;36.39;101284.81;5077649;28;45331;-69
2023/06/14 09:23:00;;;;;;;;;12.00;12.00;;;;;29.05;36.44;101293.69;5077560;28;46230;-68
2023/06/14 09:25:27;;;;;;;;;12.00;12.00;;;;;29.04;36.38;101284.03;5076994;28;45223;-69
2023/06/14 09:27:52;;;;;;;;;11.67;11.67;;;;;29.07;36.46;101305.81;5077808;28;45475;-69
2023/06/14 09:30:20;;;;;;;;;13.00;11.67;;;;;29.09;36.18;101304.78;5077604;28;45477;-69
2023/06/14 09:32:45;;;;;;;;;14.33;12.33;;;;;29.10;36.16;101295.72;5077315;28;45317;-69
2023/06/14 09:35:11;;;;;;;;;10.33;10.00;;;;;29.10;36.79;101290.38;5077133;28;45410;-69
2023/06/14 09:37:38;;;;;;;;;13.67;10.67;;;;;29.11;36.45;101294.72;5077633;28;45376;-69
2023/06/14 09:40:04;;;;;;;;;10.33;10.33;;;;;29.12;36.47;101293.69;5077034;27;45425;-69
2023/06/14 09:42:29;;;;;;;;;11.67;11.00;;;;;29.12;36.49;101283.75;5077169;27;46356;-69
2023/06/14 09:44:56;;;;;;;;;11.00;10.33;;;;;29.12;36.71;101282.97;5077047;28;45353;-69
2023/06/14 09:47:23;;;;;;;;;10.25;9.50;;;;;29.12;36.29;101296.38;5077412;27;45365;-69
2023/06/14 09:49:50;;;;;;;;;9.67;9.67;;;;;29.14;36.53;101286.25;5077095;27;45526;-69
2023/06/14 09:52:17;;;;;;;;;11.50;11.50;;;;;29.07;36.16;101275.53;5076727;28;45394;-69
2023/06/14 09:54:46;;;;;;;;;13.00;10.50;;;;;29.14;36.32;101294.28;5075597;28;45448;-69
2023/06/14 09:57:13;;;;;;;;;13.75;11.50;;;;;29.12;36.47;101291.00;5077293;28;45267;-71
2023/06/14 09:59:44;;;;;;;;;11.33;10.33;;;;;29.13;36.36;101290.78;5077435;28;45252;-71
2023/06/14 10:02:18;;;;;;;;;11.33;11.33;;;;;29.15;36.29;101299.41;5076991;28;47013;-71
2023/06/14 10:05:00;;;;;;;;;9.67;9.67;;;;;29.16;36.40;101298.38;5077073;28;45408;-71
2023/06/14 10:07:30;;;;;;;;;12.00;12.00;;;;;29.18;36.45;101315.06;5077018;28;45421;-71
2023/06/14 10:09:55;;;;;;;;;7.33;6.00;;;;;29.21;36.30;101297.72;5076807;28;45472;-71
2023/06/14 10:12:21;;;;;;;;;12.00;10.33;;;;;29.21;36.36;101297.72;5076893;28;46061;-71
2023/06/14 10:14:51;;;;;;;;;10.33;10.00;;;;;29.24;36.41;101299.97;5076632;28;45451;-71
2023/06/14 10:17:25;;;;;;;;;10.00;9.00;;;;;29.28;36.43;101292.28;5076927;28;45358;-71
2023/06/14 10:19:55;;;;;;;;;13.33;10.33;;;;;29.27;36.34;101294.19;5076883;28;45349;-71
2023/06/14 10:22:53;;;;;;;;;13.33;12.00;;;;;29.28;36.40;101285.09;5076351;28;45344;-71
2023/06/14 10:25:30;;;;;;;;;13.00;11.00;;;;;29.29;36.47;101293.94;5076320;28;45675;-70
2023/06/14 10:28:03;;;;;;;;;11.67;11.67;;;;;29.31;36.26;101297.22;5076180;28;45434;-71
2023/06/14 10:30:29;;;;;;;;;9.67;7.33;;;;;29.35;33.75;101311.00;5076618;28;45549;-71
2023/06/14 10:33:21;;;;;;;;;12.00;12.00;;;;;29.35;33.23;101302.97;5076631;28;45905;-71
2023/06/14 10:35:47;;;;;;;;;10.00;10.00;;;;;29.36;32.78;101299.22;5074129;28;45221;-71
2023/06/14 10:38:12;;;;;;;;;11.00;10.00;;;;;29.37;32.66;101311.59;5076385;28;45318;-71
2023/06/14 10:40:38;;;;;;;;;12.00;10.67;;;;;29.36;32.07;101315.31;5076517;27;45314;-71
2023/06/14 10:43:23;;;;;;;;;10.33;10.00;;;;;29.35;33.04;101297.63;5076606;27;45614;-71
2023/06/14 10:46:17;;;;;;;;;15.00;11.00;;;;;29.36;33.41;101299.22;5073246;28;45289;-71
2023/06/14 10:48:45;;;;;;;;;10.00;10.00;;;;;29.34;33.73;101298.63;5074546;28;45541;-70
2023/06/14 10:51:21;;;;;;;;;11.00;10.00;;;;;29.33;33.79;101297.81;5075553;28;45461;-70
2023/06/14 10:53:48;;;;;;;;;9.00;9.00;;;;;29.33;33.93;101303.19;5075533;27;46897;-70
2023/06/14 10:56:49;;;;;;;;;10.67;10.00;;;;;29.32;34.48;101282.78;5073048;28;45363;-70
2023/06/14 10:59:16;;;;;;;;;10.00;9.33;;;;;29.29;34.12;101289.41;5070511;28;45409;-68
2023/06/14 11:02:04;;;;;;;;;10.00;10.00;;;;;29.29;34.35;101283.22;5076268;28;45441;-68
2023/06/14 11:04:52;;;;;;;;;11.67;10.00;;;;;29.28;34.48;101298.47;5076069;28;45674;-68
2023/06/14 11:07:26;;;;;;;;;9.00;9.00;;;;;29.25;34.59;101293.56;5072620;28;45608;-68
2023/06/14 11:10:03;;;;;;;;;11.25;11.25;;;;;29.25;34.75;101298.91;5075826;27;45316;-68